sensor_id;sensor_type;location;lat;lon;timestamp;P1;durP1;ratioP1;P2;durP2;ratioP2
70138;SDS011;57507;43.056;0.150;2024-01-30T01:20:59;3.35;;;2.42;;
70138;SDS011;57507;43.056;0.150;2024-01-30T01:24:18;4.82;;;2.92;;
70138;SDS011;57507;43.056;0.150;2024-01-30T01:37:47;4.13;;;2.60;;
70138;SDS011;57507;43.056;0.150;2024-01-30T01:54:35;3.25;;;2.30;;
70138;SDS011;57507;43.056;0.150;2024-01-30T02:15:20;2.75;;;2.13;;
70138;SDS011;57507;43.056;0.150;2024-01-30T02:18:14;3.65;;;2.45;;
70138;SDS011;57507;43.056;0.150;2024-01-30T02:21:15;3.65;;;1.95;;
70138;SDS011;57507;43.056;0.150;2024-01-30T02:42:28;5.75;;;2.50;;
70138;SDS011;57507;43.056;0.150;2024-01-30T02:45:23;3.67;;;2.20;;
70138;SDS011;57507;43.056;0.150;2024-01-30T02:52:03;3.30;;;2.00;;
70138;SDS011;57507;43.056;0.150;2024-01-30T03:06:06;3.85;;;2.20;;
70138;SDS011;57507;43.056;0.150;2024-01-30T03:21:30;3.25;;;2.20;;
70138;SDS011;57507;43.056;0.150;2024-01-30T03:32:58;3.13;;;1.98;;
70138;SDS011;57507;43.056;0.150;2024-01-30T03:39:21;4.75;;;2.63;;
70138;SDS011;57507;43.056;0.150;2024-01-30T03:42:04;3.83;;;2.28;;
70138;SDS011;57507;43.056;0.150;2024-01-30T03:59:14;3.25;;;2.00;;
70138;SDS011;57507;43.056;0.150;2024-01-30T04:19:11;3.25;;;1.95;;
70138;SDS011;57507;43.056;0.150;2024-01-30T04:30:25;2.90;;;1.95;;
70138;SDS011;57507;43.056;0.150;2024-01-30T04:36:16;4.03;;;2.00;;
70138;SDS011;57507;43.056;0.150;2024-01-30T04:39:18;3.72;;;2.28;;
70138;SDS011;57507;43.056;0.150;2024-01-30T04:42:05;6.93;;;2.40;;
70138;SDS011;57507;43.056;0.150;2024-01-30T04:44:40;3.35;;;1.92;;
70138;SDS011;57507;43.056;0.150;2024-01-30T04:50:20;3.78;;;2.30;;
70138;SDS011;57507;43.056;0.150;2024-01-30T04:53:08;2.95;;;1.80;;
70138;SDS011;57507;43.056;0.150;2024-01-30T04:55:34;2.90;;;1.92;;
70138;SDS011;57507;43.056;0.150;2024-01-30T04:58:01;2.97;;;2.08;;
70138;SDS011;57507;43.056;0.150;2024-01-30T05:00:27;3.90;;;2.10;;
70138;SDS011;57507;43.056;0.150;2024-01-30T05:02:56;3.53;;;1.98;;
70138;SDS011;57507;43.056;0.150;2024-01-30T05:05:25;3.10;;;2.05;;
70138;SDS011;57507;43.056;0.150;2024-01-30T05:07:51;3.38;;;2.10;;
70138;SDS011;57507;43.056;0.150;2024-01-30T05:10:18;3.30;;;1.98;;
70138;SDS011;57507;43.056;0.150;2024-01-30T05:12:44;5.30;;;2.28;;
70138;SDS011;57507;43.056;0.150;2024-01-30T05:15:10;3.45;;;2.10;;
70138;SDS011;57507;43.056;0.150;2024-01-30T05:17:36;4.80;;;2.40;;
70138;SDS011;57507;43.056;0.150;2024-01-30T05:20:05;3.08;;;2.13;;
70138;SDS011;57507;43.056;0.150;2024-01-30T05:22:34;3.35;;;2.10;;
70138;SDS011;57507;43.056;0.150;2024-01-30T05:25:01;2.92;;;1.90;;
70138;SDS011;57507;43.056;0.150;2024-01-30T05:27:29;3.45;;;2.22;;
70138;SDS011;57507;43.056;0.150;2024-01-30T05:29:55;4.38;;;2.20;;
70138;SDS011;57507;43.056;0.150;2024-01-30T05:32:21;3.70;;;2.10;;
70138;SDS011;57507;43.056;0.150;2024-01-30T05:34:50;3.97;;;2.47;;
70138;SDS011;57507;43.056;0.150;2024-01-30T05:37:16;3.00;;;1.95;;
70138;SDS011;57507;43.056;0.150;2024-01-30T05:39:43;3.42;;;1.95;;
70138;SDS011;57507;43.056;0.150;2024-01-30T05:42:09;4.00;;;2.38;;
70138;SDS011;57507;43.056;0.150;2024-01-30T05:44:35;3.42;;;2.40;;
70138;SDS011;57507;43.056;0.150;2024-01-30T05:47:01;3.10;;;1.95;;
70138;SDS011;57507;43.056;0.150;2024-01-30T05:49:27;3.05;;;2.15;;
70138;SDS011;57507;43.056;0.150;2024-01-30T05:52:04;3.60;;;2.10;;
70138;SDS011;57507;43.056;0.150;2024-01-30T05:54:30;2.70;;;1.88;;
70138;SDS011;57507;43.056;0.150;2024-01-30T05:56:56;3.22;;;1.98;;
70138;SDS011;57507;43.056;0.150;2024-01-30T05:59:22;4.70;;;2.05;;
70138;SDS011;57507;43.056;0.150;2024-01-30T06:01:49;3.10;;;2.10;;
70138;SDS011;57507;43.056;0.150;2024-01-30T06:04:18;4.15;;;2.03;;
70138;SDS011;57507;43.056;0.150;2024-01-30T06:06:44;3.17;;;1.58;;
70138;SDS011;57507;43.056;0.150;2024-01-30T06:09:10;2.80;;;1.92;;
70138;SDS011;57507;43.056;0.150;2024-01-30T06:11:38;2.20;;;1.48;;
70138;SDS011;57507;43.056;0.150;2024-01-30T06:14:04;3.55;;;1.80;;
70138;SDS011;57507;43.056;0.150;2024-01-30T06:16:32;3.60;;;1.75;;
70138;SDS011;57507;43.056;0.150;2024-01-30T06:19:46;3.00;;;1.70;;
70138;SDS011;57507;43.056;0.150;2024-01-30T06:22:21;2.55;;;1.70;;
70138;SDS011;57507;43.056;0.150;2024-01-30T06:25:06;3.30;;;1.70;;
70138;SDS011;57507;43.056;0.150;2024-01-30T06:30:19;4.85;;;1.60;;
70138;SDS011;57507;43.056;0.150;2024-01-30T06:32:45;3.65;;;1.92;;
70138;SDS011;57507;43.056;0.150;2024-01-30T06:35:14;3.45;;;1.95;;
70138;SDS011;57507;43.056;0.150;2024-01-30T06:37:42;4.05;;;2.10;;
70138;SDS011;57507;43.056;0.150;2024-01-30T06:40:11;2.83;;;2.00;;
70138;SDS011;57507;43.056;0.150;2024-01-30T06:42:38;5.90;;;2.40;;
70138;SDS011;57507;43.056;0.150;2024-01-30T06:45:04;3.22;;;1.83;;
70138;SDS011;57507;43.056;0.150;2024-01-30T06:47:30;3.25;;;1.90;;
70138;SDS011;57507;43.056;0.150;2024-01-30T06:49:57;3.08;;;1.77;;
70138;SDS011;57507;43.056;0.150;2024-01-30T06:52:23;2.88;;;1.85;;
70138;SDS011;57507;43.056;0.150;2024-01-30T06:54:52;2.75;;;2.00;;
70138;SDS011;57507;43.056;0.150;2024-01-30T06:57:21;3.13;;;1.88;;
70138;SDS011;57507;43.056;0.150;2024-01-30T06:59:55;2.83;;;1.92;;
70138;SDS011;57507;43.056;0.150;2024-01-30T07:02:23;3.30;;;1.80;;
70138;SDS011;57507;43.056;0.150;2024-01-30T07:04:50;2.45;;;1.85;;
70138;SDS011;57507;43.056;0.150;2024-01-30T07:07:19;2.58;;;1.80;;
70138;SDS011;57507;43.056;0.150;2024-01-30T07:09:47;3.50;;;1.63;;
70138;SDS011;57507;43.056;0.150;2024-01-30T07:15:09;2.78;;;1.75;;
70138;SDS011;57507;43.056;0.150;2024-01-30T07:18:03;2.53;;;1.63;;
70138;SDS011;57507;43.056;0.150;2024-01-30T07:21:00;2.95;;;1.67;;
70138;SDS011;57507;43.056;0.150;2024-01-30T07:29:15;5.53;;;1.73;;
70138;SDS011;57507;43.056;0.150;2024-01-30T07:37:54;3.47;;;1.80;;
70138;SDS011;57507;43.056;0.150;2024-01-30T07:43:44;4.22;;;2.30;;
70138;SDS011;57507;43.056;0.150;2024-01-30T07:57:54;3.20;;;1.90;;
70138;SDS011;57507;43.056;0.150;2024-01-30T08:00:44;2.40;;;1.80;;
70138;SDS011;57507;43.056;0.150;2024-01-30T08:03:44;3.42;;;1.67;;
70138;SDS011;57507;43.056;0.150;2024-01-30T08:06:51;2.88;;;1.48;;
70138;SDS011;57507;43.056;0.150;2024-01-30T08:09:42;2.97;;;1.73;;
70138;SDS011;57507;43.056;0.150;2024-01-30T08:12:32;3.97;;;1.80;;
70138;SDS011;57507;43.056;0.150;2024-01-30T08:28:46;2.92;;;1.63;;
70138;SDS011;57507;43.056;0.150;2024-01-30T08:34:13;4.78;;;1.63;;
70138;SDS011;57507;43.056;0.150;2024-01-30T08:37:18;3.97;;;1.83;;
70138;SDS011;57507;43.056;0.150;2024-01-30T08:43:22;4.60;;;1.83;;
70138;SDS011;57507;43.056;0.150;2024-01-30T08:46:36;7.72;;;2.00;;
70138;SDS011;57507;43.056;0.150;2024-01-30T09:29:08;4.72;;;1.45;;
70138;SDS011;57507;43.056;0.150;2024-01-30T09:31:34;2.38;;;1.25;;
70138;SDS011;57507;43.056;0.150;2024-01-30T09:34:00;8.30;;;2.58;;
70138;SDS011;57507;43.056;0.150;2024-01-30T09:36:26;5.05;;;2.35;;
70138;SDS011;57507;43.056;0.150;2024-01-30T09:38:53;5.60;;;1.92;;
70138;SDS011;57507;43.056;0.150;2024-01-30T09:49:58;4.43;;;1.52;;
70138;SDS011;57507;43.056;0.150;2024-01-30T09:52:27;3.10;;;1.52;;
70138;SDS011;57507;43.056;0.150;2024-01-30T09:54:56;3.33;;;1.60;;
70138;SDS011;57507;43.056;0.150;2024-01-30T09:57:25;3.95;;;1.83;;
70138;SDS011;57507;43.056;0.150;2024-01-30T09:59:51;2.72;;;1.42;;
70138;SDS011;57507;43.056;0.150;2024-01-30T10:02:19;3.38;;;1.50;;
70138;SDS011;57507;43.056;0.150;2024-01-30T10:04:47;4.03;;;1.40;;
70138;SDS011;57507;43.056;0.150;2024-01-30T10:07:13;2.25;;;1.40;;
70138;SDS011;57507;43.056;0.150;2024-01-30T10:09:40;3.75;;;1.35;;
70138;SDS011;57507;43.056;0.150;2024-01-30T10:12:06;7.35;;;2.47;;
70138;SDS011;57507;43.056;0.150;2024-01-30T10:14:33;3.67;;;1.30;;
70138;SDS011;57507;43.056;0.150;2024-01-30T10:17:02;5.18;;;1.48;;
70138;SDS011;57507;43.056;0.150;2024-01-30T10:19:28;3.25;;;1.50;;
70138;SDS011;57507;43.056;0.150;2024-01-30T10:21:54;5.53;;;1.75;;
70138;SDS011;57507;43.056;0.150;2024-01-30T10:24:26;5.47;;;1.50;;
70138;SDS011;57507;43.056;0.150;2024-01-30T10:26:54;4.22;;;1.77;;
70138;SDS011;57507;43.056;0.150;2024-01-30T10:29:20;3.78;;;1.50;;
70138;SDS011;57507;43.056;0.150;2024-01-30T10:32:02;2.90;;;1.20;;
70138;SDS011;57507;43.056;0.150;2024-01-30T10:34:49;4.70;;;1.90;;
70138;SDS011;57507;43.056;0.150;2024-01-30T10:37:40;5.35;;;1.73;;
70138;SDS011;57507;43.056;0.150;2024-01-30T11:04:41;2.05;;;1.42;;
70138;SDS011;57507;43.056;0.150;2024-01-30T11:07:17;2.58;;;1.25;;
70138;SDS011;57507;43.056;0.150;2024-01-30T11:09:52;2.72;;;1.25;;
70138;SDS011;57507;43.056;0.150;2024-01-30T11:12:22;2.83;;;1.38;;
70138;SDS011;57507;43.056;0.150;2024-01-30T11:14:48;2.15;;;1.33;;
70138;SDS011;57507;43.056;0.150;2024-01-30T11:17:14;3.60;;;1.60;;
70138;SDS011;57507;43.056;0.150;2024-01-30T11:19:41;1.52;;;1.33;;
70138;SDS011;57507;43.056;0.150;2024-01-30T11:22:07;1.95;;;1.15;;
70138;SDS011;57507;43.056;0.150;2024-01-30T11:24:40;2.55;;;1.20;;
70138;SDS011;57507;43.056;0.150;2024-01-30T11:27:09;4.90;;;1.55;;
70138;SDS011;57507;43.056;0.150;2024-01-30T11:29:35;2.55;;;1.40;;
70138;SDS011;57507;43.056;0.150;2024-01-30T11:32:02;5.50;;;1.65;;
70138;SDS011;57507;43.056;0.150;2024-01-30T11:34:28;4.00;;;1.50;;
70138;SDS011;57507;43.056;0.150;2024-01-30T11:36:57;3.72;;;1.35;;
70138;SDS011;57507;43.056;0.150;2024-01-30T11:39:27;2.20;;;1.40;;
70138;SDS011;57507;43.056;0.150;2024-01-30T11:41:53;2.92;;;1.20;;
70138;SDS011;57507;43.056;0.150;2024-01-30T11:44:22;1.75;;;1.33;;
70138;SDS011;57507;43.056;0.150;2024-01-30T11:46:49;3.30;;;1.42;;
70138;SDS011;57507;43.056;0.150;2024-01-30T11:49:15;1.88;;;1.27;;
70138;SDS011;57507;43.056;0.150;2024-01-30T11:51:47;3.45;;;1.30;;
70138;SDS011;57507;43.056;0.150;2024-01-30T11:54:14;4.05;;;1.60;;
70138;SDS011;57507;43.056;0.150;2024-01-30T11:56:41;2.25;;;1.27;;
70138;SDS011;57507;43.056;0.150;2024-01-30T11:59:09;2.88;;;1.17;;
70138;SDS011;57507;43.056;0.150;2024-01-30T12:01:35;2.38;;;1.10;;
70138;SDS011;57507;43.056;0.150;2024-01-30T12:04:01;1.92;;;1.20;;
70138;SDS011;57507;43.056;0.150;2024-01-30T12:06:28;3.92;;;1.40;;
70138;SDS011;57507;43.056;0.150;2024-01-30T12:09:03;2.38;;;1.63;;
70138;SDS011;57507;43.056;0.150;2024-01-30T12:11:30;2.13;;;1.35;;
70138;SDS011;57507;43.056;0.150;2024-01-30T12:13:56;5.53;;;1.48;;
70138;SDS011;57507;43.056;0.150;2024-01-30T12:16:22;2.08;;;1.20;;
70138;SDS011;57507;43.056;0.150;2024-01-30T12:18:48;2.90;;;1.42;;
70138;SDS011;57507;43.056;0.150;2024-01-30T12:21:17;2.45;;;1.50;;
70138;SDS011;57507;43.056;0.150;2024-01-30T12:23:43;4.03;;;1.60;;
70138;SDS011;57507;43.056;0.150;2024-01-30T12:26:10;4.40;;;1.70;;
70138;SDS011;57507;43.056;0.150;2024-01-30T12:28:36;2.65;;;1.42;;
70138;SDS011;57507;43.056;0.150;2024-01-30T12:31:02;3.17;;;1.75;;
70138;SDS011;57507;43.056;0.150;2024-01-30T12:33:29;3.13;;;1.50;;
70138;SDS011;57507;43.056;0.150;2024-01-30T12:35:55;4.57;;;1.60;;
70138;SDS011;57507;43.056;0.150;2024-01-30T12:38:22;2.63;;;1.40;;
70138;SDS011;57507;43.056;0.150;2024-01-30T12:40:49;2.90;;;1.60;;
70138;SDS011;57507;43.056;0.150;2024-01-30T12:43:15;2.60;;;1.50;;
70138;SDS011;57507;43.056;0.150;2024-01-30T12:45:41;1.90;;;1.30;;
70138;SDS011;57507;43.056;0.150;2024-01-30T12:48:08;3.13;;;1.13;;
70138;SDS011;57507;43.056;0.150;2024-01-30T12:50:35;2.47;;;1.60;;
70138;SDS011;57507;43.056;0.150;2024-01-30T12:53:01;3.60;;;1.52;;
70138;SDS011;57507;43.056;0.150;2024-01-30T12:55:27;3.03;;;1.40;;
70138;SDS011;57507;43.056;0.150;2024-01-30T12:57:54;4.35;;;1.50;;
70138;SDS011;57507;43.056;0.150;2024-01-30T13:00:20;2.67;;;1.30;;
70138;SDS011;57507;43.056;0.150;2024-01-30T13:02:47;3.17;;;1.50;;
70138;SDS011;57507;43.056;0.150;2024-01-30T13:05:13;3.65;;;1.58;;
70138;SDS011;57507;43.056;0.150;2024-01-30T13:07:39;1.98;;;1.30;;
70138;SDS011;57507;43.056;0.150;2024-01-30T13:10:06;2.38;;;1.10;;
70138;SDS011;57507;43.056;0.150;2024-01-30T13:12:32;3.17;;;1.60;;
70138;SDS011;57507;43.056;0.150;2024-01-30T13:14:58;2.95;;;1.63;;
70138;SDS011;57507;43.056;0.150;2024-01-30T13:17:29;2.88;;;1.55;;
70138;SDS011;57507;43.056;0.150;2024-01-30T13:19:55;1.92;;;1.38;;
70138;SDS011;57507;43.056;0.150;2024-01-30T13:22:21;3.90;;;1.70;;
70138;SDS011;57507;43.056;0.150;2024-01-30T13:24:47;5.03;;;1.30;;
70138;SDS011;57507;43.056;0.150;2024-01-30T13:27:14;2.17;;;1.45;;
70138;SDS011;57507;43.056;0.150;2024-01-30T13:29:40;3.42;;;1.73;;
70138;SDS011;57507;43.056;0.150;2024-01-30T13:32:06;2.70;;;1.40;;
70138;SDS011;57507;43.056;0.150;2024-01-30T13:34:32;3.83;;;1.42;;
70138;SDS011;57507;43.056;0.150;2024-01-30T13:36:58;4.38;;;1.60;;
70138;SDS011;57507;43.056;0.150;2024-01-30T13:39:24;2.53;;;1.20;;
70138;SDS011;57507;43.056;0.150;2024-01-30T13:41:50;3.88;;;1.45;;
70138;SDS011;57507;43.056;0.150;2024-01-30T13:44:17;3.15;;;1.75;;
70138;SDS011;57507;43.056;0.150;2024-01-30T13:46:43;2.38;;;1.52;;
70138;SDS011;57507;43.056;0.150;2024-01-30T13:49:10;4.20;;;1.60;;
70138;SDS011;57507;43.056;0.150;2024-01-30T13:51:36;4.10;;;1.40;;
70138;SDS011;57507;43.056;0.150;2024-01-30T13:54:02;5.32;;;1.80;;
70138;SDS011;57507;43.056;0.150;2024-01-30T13:56:28;3.00;;;1.83;;
70138;SDS011;57507;43.056;0.150;2024-01-30T13:58:55;5.13;;;2.88;;
70138;SDS011;57507;43.056;0.150;2024-01-30T14:01:21;5.30;;;3.08;;
70138;SDS011;57507;43.056;0.150;2024-01-30T14:03:47;5.13;;;2.53;;
70138;SDS011;57507;43.056;0.150;2024-01-30T14:06:14;4.32;;;2.90;;
70138;SDS011;57507;43.056;0.150;2024-01-30T14:08:40;4.00;;;2.40;;
70138;SDS011;57507;43.056;0.150;2024-01-30T14:11:06;3.95;;;2.50;;
70138;SDS011;57507;43.056;0.150;2024-01-30T14:13:32;3.25;;;2.42;;
70138;SDS011;57507;43.056;0.150;2024-01-30T14:15:58;5.03;;;2.30;;
70138;SDS011;57507;43.056;0.150;2024-01-30T14:18:24;4.60;;;2.28;;
70138;SDS011;57507;43.056;0.150;2024-01-30T14:20:53;4.65;;;2.22;;
70138;SDS011;57507;43.056;0.150;2024-01-30T14:23:19;3.90;;;2.20;;
70138;SDS011;57507;43.056;0.150;2024-01-30T14:25:46;3.55;;;1.85;;
70138;SDS011;57507;43.056;0.150;2024-01-30T14:28:12;3.80;;;2.35;;
70138;SDS011;57507;43.056;0.150;2024-01-30T14:30:38;8.57;;;3.92;;
70138;SDS011;57507;43.056;0.150;2024-01-30T14:33:04;6.38;;;2.65;;
70138;SDS011;57507;43.056;0.150;2024-01-30T14:35:31;6.72;;;2.95;;
70138;SDS011;57507;43.056;0.150;2024-01-30T14:37:58;5.15;;;2.50;;
70138;SDS011;57507;43.056;0.150;2024-01-30T14:40:24;4.90;;;2.50;;
70138;SDS011;57507;43.056;0.150;2024-01-30T14:42:50;4.30;;;2.08;;
70138;SDS011;57507;43.056;0.150;2024-01-30T14:45:16;5.50;;;2.42;;
70138;SDS011;57507;43.056;0.150;2024-01-30T14:47:42;2.92;;;1.98;;
70138;SDS011;57507;43.056;0.150;2024-01-30T14:50:08;3.90;;;2.17;;
70138;SDS011;57507;43.056;0.150;2024-01-30T14:52:35;5.32;;;2.33;;
70138;SDS011;57507;43.056;0.150;2024-01-30T14:55:01;4.45;;;2.35;;
70138;SDS011;57507;43.056;0.150;2024-01-30T14:57:27;4.90;;;2.33;;
70138;SDS011;57507;43.056;0.150;2024-01-30T14:59:53;3.70;;;2.03;;
70138;SDS011;57507;43.056;0.150;2024-01-30T15:02:19;4.65;;;3.13;;
70138;SDS011;57507;43.056;0.150;2024-01-30T15:04:45;5.25;;;2.60;;
70138;SDS011;57507;43.056;0.150;2024-01-30T15:07:11;4.70;;;2.60;;
70138;SDS011;57507;43.056;0.150;2024-01-30T15:09:37;6.47;;;2.70;;
70138;SDS011;57507;43.056;0.150;2024-01-30T15:12:03;4.85;;;2.42;;
70138;SDS011;57507;43.056;0.150;2024-01-30T15:14:30;3.85;;;2.20;;
70138;SDS011;57507;43.056;0.150;2024-01-30T15:16:56;5.32;;;2.50;;
70138;SDS011;57507;43.056;0.150;2024-01-30T15:19:22;4.88;;;2.42;;
70138;SDS011;57507;43.056;0.150;2024-01-30T15:21:48;4.43;;;2.10;;
70138;SDS011;57507;43.056;0.150;2024-01-30T15:24:14;4.47;;;2.53;;
70138;SDS011;57507;43.056;0.150;2024-01-30T15:26:42;3.25;;;2.28;;
70138;SDS011;57507;43.056;0.150;2024-01-30T15:29:08;5.88;;;2.90;;
70138;SDS011;57507;43.056;0.150;2024-01-30T15:31:34;3.25;;;2.00;;
70138;SDS011;57507;43.056;0.150;2024-01-30T15:34:00;7.22;;;2.30;;
70138;SDS011;57507;43.056;0.150;2024-01-30T15:36:26;3.05;;;2.33;;
70138;SDS011;57507;43.056;0.150;2024-01-30T15:38:52;4.60;;;2.20;;
70138;SDS011;57507;43.056;0.150;2024-01-30T15:41:18;3.67;;;2.45;;
70138;SDS011;57507;43.056;0.150;2024-01-30T15:43:44;4.28;;;2.40;;
70138;SDS011;57507;43.056;0.150;2024-01-30T15:46:10;3.25;;;2.10;;
70138;SDS011;57507;43.056;0.150;2024-01-30T15:48:36;3.42;;;2.20;;
70138;SDS011;57507;43.056;0.150;2024-01-30T15:51:02;8.07;;;2.55;;
70138;SDS011;57507;43.056;0.150;2024-01-30T15:53:28;4.38;;;2.92;;
70138;SDS011;57507;43.056;0.150;2024-01-30T15:55:54;5.82;;;3.03;;
70138;SDS011;57507;43.056;0.150;2024-01-30T15:58:20;6.18;;;3.33;;
70138;SDS011;57507;43.056;0.150;2024-01-30T16:00:46;7.32;;;3.70;;
70138;SDS011;57507;43.056;0.150;2024-01-30T16:03:12;5.18;;;3.20;;
70138;SDS011;57507;43.056;0.150;2024-01-30T16:05:38;7.60;;;3.40;;
70138;SDS011;57507;43.056;0.150;2024-01-30T16:08:05;4.72;;;2.80;;
70138;SDS011;57507;43.056;0.150;2024-01-30T16:10:31;5.95;;;2.88;;
70138;SDS011;57507;43.056;0.150;2024-01-30T16:12:57;4.72;;;3.08;;
70138;SDS011;57507;43.056;0.150;2024-01-30T16:15:23;3.63;;;2.63;;
70138;SDS011;57507;43.056;0.150;2024-01-30T16:17:49;4.72;;;2.80;;
70138;SDS011;57507;43.056;0.150;2024-01-30T16:20:15;6.63;;;2.40;;
70138;SDS011;57507;43.056;0.150;2024-01-30T16:22:42;4.53;;;2.53;;
70138;SDS011;57507;43.056;0.150;2024-01-30T16:25:08;4.07;;;2.60;;
70138;SDS011;57507;43.056;0.150;2024-01-30T16:27:34;8.13;;;3.03;;
70138;SDS011;57507;43.056;0.150;2024-01-30T16:30:00;4.68;;;2.97;;
70138;SDS011;57507;43.056;0.150;2024-01-30T16:32:26;4.65;;;3.20;;
70138;SDS011;57507;43.056;0.150;2024-01-30T16:34:56;4.13;;;2.72;;
70138;SDS011;57507;43.056;0.150;2024-01-30T16:37:22;5.28;;;3.10;;
70138;SDS011;57507;43.056;0.150;2024-01-30T16:39:48;6.38;;;2.88;;
70138;SDS011;57507;43.056;0.150;2024-01-30T16:42:14;4.95;;;2.70;;
70138;SDS011;57507;43.056;0.150;2024-01-30T16:44:40;4.70;;;2.83;;
70138;SDS011;57507;43.056;0.150;2024-01-30T16:47:08;6.22;;;2.97;;
70138;SDS011;57507;43.056;0.150;2024-01-30T16:49:34;6.03;;;2.75;;
70138;SDS011;57507;43.056;0.150;2024-01-30T16:52:00;6.47;;;2.67;;
70138;SDS011;57507;43.056;0.150;2024-01-30T16:54:26;4.47;;;2.75;;
70138;SDS011;57507;43.056;0.150;2024-01-30T16:56:52;4.32;;;2.67;;
70138;SDS011;57507;43.056;0.150;2024-01-30T16:59:18;5.68;;;2.72;;
70138;SDS011;57507;43.056;0.150;2024-01-30T17:01:44;4.55;;;2.60;;
70138;SDS011;57507;43.056;0.150;2024-01-30T17:04:16;3.63;;;2.30;;
70138;SDS011;57507;43.056;0.150;2024-01-30T17:06:45;4.65;;;2.55;;
70138;SDS011;57507;43.056;0.150;2024-01-30T17:09:11;5.25;;;2.78;;
70138;SDS011;57507;43.056;0.150;2024-01-30T17:11:38;6.70;;;2.40;;
70138;SDS011;57507;43.056;0.150;2024-01-30T17:14:16;6.25;;;2.75;;
70138;SDS011;57507;43.056;0.150;2024-01-30T17:20:27;7.67;;;2.50;;
70138;SDS011;57507;43.056;0.150;2024-01-30T17:23:21;7.70;;;3.08;;
70138;SDS011;57507;43.056;0.150;2024-01-30T17:50:20;5.05;;;2.33;;
70138;SDS011;57507;43.056;0.150;2024-01-30T18:03:30;6.65;;;2.90;;
70138;SDS011;57507;43.056;0.150;2024-01-30T18:06:36;6.43;;;2.60;;
70138;SDS011;57507;43.056;0.150;2024-01-30T18:09:10;6.30;;;2.97;;
70138;SDS011;57507;43.056;0.150;2024-01-30T18:11:49;6.57;;;3.05;;
70138;SDS011;57507;43.056;0.150;2024-01-30T18:14:21;8.43;;;2.85;;
70138;SDS011;57507;43.056;0.150;2024-01-30T18:16:47;6.85;;;3.15;;
70138;SDS011;57507;43.056;0.150;2024-01-30T18:19:13;6.18;;;3.00;;
70138;SDS011;57507;43.056;0.150;2024-01-30T18:21:39;7.03;;;3.15;;
70138;SDS011;57507;43.056;0.150;2024-01-30T18:24:05;6.30;;;3.10;;
70138;SDS011;57507;43.056;0.150;2024-01-30T18:26:35;6.93;;;2.63;;
70138;SDS011;57507;43.056;0.150;2024-01-30T18:29:01;4.38;;;2.50;;
70138;SDS011;57507;43.056;0.150;2024-01-30T18:31:31;5.68;;;2.88;;
70138;SDS011;57507;43.056;0.150;2024-01-30T18:33:57;5.38;;;3.17;;
70138;SDS011;57507;43.056;0.150;2024-01-30T18:36:23;6.80;;;2.80;;
70138;SDS011;57507;43.056;0.150;2024-01-30T18:38:50;6.25;;;3.17;;
70138;SDS011;57507;43.056;0.150;2024-01-30T18:41:16;6.72;;;2.90;;
70138;SDS011;57507;43.056;0.150;2024-01-30T18:43:42;7.85;;;2.72;;
70138;SDS011;57507;43.056;0.150;2024-01-30T18:46:08;4.88;;;2.83;;
70138;SDS011;57507;43.056;0.150;2024-01-30T18:48:38;6.45;;;2.72;;
70138;SDS011;57507;43.056;0.150;2024-01-30T18:51:04;5.88;;;3.05;;
70138;SDS011;57507;43.056;0.150;2024-01-30T18:53:30;8.38;;;3.15;;
70138;SDS011;57507;43.056;0.150;2024-01-30T18:55:56;4.28;;;2.70;;
70138;SDS011;57507;43.056;0.150;2024-01-30T18:58:23;4.25;;;2.60;;
70138;SDS011;57507;43.056;0.150;2024-01-30T19:00:49;5.90;;;3.28;;
70138;SDS011;57507;43.056;0.150;2024-01-30T19:03:15;6.65;;;3.30;;
70138;SDS011;57507;43.056;0.150;2024-01-30T19:05:42;7.82;;;3.17;;
70138;SDS011;57507;43.056;0.150;2024-01-30T19:08:08;8.75;;;3.55;;
70138;SDS011;57507;43.056;0.150;2024-01-30T19:10:34;5.22;;;2.78;;
70138;SDS011;57507;43.056;0.150;2024-01-30T19:13:01;4.22;;;2.45;;
70138;SDS011;57507;43.056;0.150;2024-01-30T19:15:27;5.43;;;2.70;;
70138;SDS011;57507;43.056;0.150;2024-01-30T19:17:53;5.13;;;2.70;;
70138;SDS011;57507;43.056;0.150;2024-01-30T19:20:19;5.80;;;2.60;;
70138;SDS011;57507;43.056;0.150;2024-01-30T19:22:47;5.82;;;2.50;;
70138;SDS011;57507;43.056;0.150;2024-01-30T19:25:13;4.45;;;2.88;;
70138;SDS011;57507;43.056;0.150;2024-01-30T19:27:41;5.25;;;2.97;;
70138;SDS011;57507;43.056;0.150;2024-01-30T19:30:08;4.15;;;2.38;;
70138;SDS011;57507;43.056;0.150;2024-01-30T19:32:34;8.45;;;3.00;;
70138;SDS011;57507;43.056;0.150;2024-01-30T19:35:01;5.07;;;2.80;;
70138;SDS011;57507;43.056;0.150;2024-01-30T19:37:27;6.70;;;3.35;;
70138;SDS011;57507;43.056;0.150;2024-01-30T19:39:56;4.68;;;2.78;;
70138;SDS011;57507;43.056;0.150;2024-01-30T19:42:22;6.28;;;2.72;;
70138;SDS011;57507;43.056;0.150;2024-01-30T19:44:48;4.45;;;2.70;;
70138;SDS011;57507;43.056;0.150;2024-01-30T19:47:14;6.55;;;3.40;;
70138;SDS011;57507;43.056;0.150;2024-01-30T19:49:43;6.32;;;2.90;;
70138;SDS011;57507;43.056;0.150;2024-01-30T19:52:15;9.00;;;3.63;;
70138;SDS011;57507;43.056;0.150;2024-01-30T19:55:02;5.00;;;2.88;;
70138;SDS011;57507;43.056;0.150;2024-01-30T19:57:39;4.95;;;3.17;;
70138;SDS011;57507;43.056;0.150;2024-01-30T20:00:46;6.50;;;2.75;;
70138;SDS011;57507;43.056;0.150;2024-01-30T20:07:15;6.45;;;3.30;;
70138;SDS011;57507;43.056;0.150;2024-01-30T20:19:13;7.20;;;3.10;;
70138;SDS011;57507;43.056;0.150;2024-01-30T20:22:20;4.72;;;2.90;;
70138;SDS011;57507;43.056;0.150;2024-01-30T20:43:21;6.72;;;3.22;;
70138;SDS011;57507;43.056;0.150;2024-01-30T20:52:22;7.47;;;3.17;;
70138;SDS011;57507;43.056;0.150;2024-01-30T21:07:08;5.57;;;3.15;;
70138;SDS011;57507;43.056;0.150;2024-01-30T21:19:10;7.32;;;3.40;;
70138;SDS011;57507;43.056;0.150;2024-01-30T21:25:23;6.25;;;3.80;;
70138;SDS011;57507;43.056;0.150;2024-01-30T21:31:29;6.28;;;3.35;;
70138;SDS011;57507;43.056;0.150;2024-01-30T21:45:34;7.55;;;3.45;;
70138;SDS011;57507;43.056;0.150;2024-01-30T21:48:28;5.22;;;3.22;;
70138;SDS011;57507;43.056;0.150;2024-01-30T21:54:22;5.97;;;3.03;;
70138;SDS011;57507;43.056;0.150;2024-01-30T22:05:06;5.95;;;3.10;;
70138;SDS011;57507;43.056;0.150;2024-01-30T22:07:35;6.68;;;3.63;;
70138;SDS011;57507;43.056;0.150;2024-01-30T22:10:02;5.40;;;3.25;;
70138;SDS011;57507;43.056;0.150;2024-01-30T22:12:28;4.55;;;3.20;;
70138;SDS011;57507;43.056;0.150;2024-01-30T22:14:55;7.25;;;3.50;;
70138;SDS011;57507;43.056;0.150;2024-01-30T22:17:22;5.32;;;3.28;;
70138;SDS011;57507;43.056;0.150;2024-01-30T22:19:48;6.43;;;3.08;;
70138;SDS011;57507;43.056;0.150;2024-01-30T22:22:14;5.80;;;3.33;;
70138;SDS011;57507;43.056;0.150;2024-01-30T22:24:41;5.35;;;3.17;;
70138;SDS011;57507;43.056;0.150;2024-01-30T22:27:12;8.23;;;3.53;;
70138;SDS011;57507;43.056;0.150;2024-01-30T22:29:38;5.40;;;3.28;;
70138;SDS011;57507;43.056;0.150;2024-01-30T22:32:06;5.07;;;3.15;;
70138;SDS011;57507;43.056;0.150;2024-01-30T22:34:32;5.22;;;3.05;;
70138;SDS011;57507;43.056;0.150;2024-01-30T22:37:04;5.85;;;3.20;;
70138;SDS011;57507;43.056;0.150;2024-01-30T22:39:30;7.43;;;3.22;;
70138;SDS011;57507;43.056;0.150;2024-01-30T22:41:56;4.25;;;2.83;;
70138;SDS011;57507;43.056;0.150;2024-01-30T22:44:22;5.43;;;2.92;;
70138;SDS011;57507;43.056;0.150;2024-01-30T22:46:49;6.53;;;3.47;;
70138;SDS011;57507;43.056;0.150;2024-01-30T22:49:20;6.45;;;3.10;;
70138;SDS011;57507;43.056;0.150;2024-01-30T22:51:46;6.07;;;3.47;;
70138;SDS011;57507;43.056;0.150;2024-01-30T22:54:14;5.20;;;3.10;;
70138;SDS011;57507;43.056;0.150;2024-01-30T22:56:44;4.22;;;2.72;;
70138;SDS011;57507;43.056;0.150;2024-01-30T22:59:12;5.90;;;2.90;;
70138;SDS011;57507;43.056;0.150;2024-01-30T23:01:40;5.57;;;3.00;;
70138;SDS011;57507;43.056;0.150;2024-01-30T23:04:08;5.82;;;2.83;;
70138;SDS011;57507;43.056;0.150;2024-01-30T23:06:34;5.88;;;3.00;;
70138;SDS011;57507;43.056;0.150;2024-01-30T23:09:00;6.80;;;3.17;;